sensor_id;sensor_type;location;lat;lon;timestamp;P1;durP1;ratioP1;P2;durP2;ratioP2
20802;SDS011;10562;-33.856;151.182;2022-08-21T00:00:17;6.97;;;1.80;;
20802;SDS011;10562;-33.856;151.182;2022-08-21T00:02:50;7.00;;;1.58;;
20802;SDS011;10562;-33.856;151.182;2022-08-21T00:05:23;6.88;;;1.55;;
20802;SDS011;10562;-33.856;151.182;2022-08-21T00:07:55;6.25;;;1.30;;
20802;SDS011;10562;-33.856;151.182;2022-08-21T00:10:26;6.22;;;1.70;;
20802;SDS011;10562;-33.856;151.182;2022-08-21T00:13:00;8.50;;;1.70;;
20802;SDS011;10562;-33.856;151.182;2022-08-21T00:15:33;7.30;;;1.27;;
20802;SDS011;10562;-33.856;151.182;2022-08-21T00:18:05;7.22;;;1.33;;
20802;SDS011;10562;-33.856;151.182;2022-08-21T00:20:37;7.60;;;1.60;;
20802;SDS011;10562;-33.856;151.182;2022-08-21T00:23:11;5.95;;;1.30;;
20802;SDS011;10562;-33.856;151.182;2022-08-21T00:25:43;6.75;;;1.42;;
20802;SDS011;10562;-33.856;151.182;2022-08-21T00:28:16;5.32;;;1.45;;
20802;SDS011;10562;-33.856;151.182;2022-08-21T00:30:47;8.48;;;1.60;;
20802;SDS011;10562;-33.856;151.182;2022-08-21T00:33:18;7.78;;;1.30;;
20802;SDS011;10562;-33.856;151.182;2022-08-21T00:35:49;6.45;;;1.35;;
20802;SDS011;10562;-33.856;151.182;2022-08-21T00:38:20;5.75;;;1.33;;
20802;SDS011;10562;-33.856;151.182;2022-08-21T00:40:56;7.40;;;1.30;;
20802;SDS011;10562;-33.856;151.182;2022-08-21T00:43:31;8.32;;;1.27;;
20802;SDS011;10562;-33.856;151.182;2022-08-21T00:46:04;7.45;;;1.55;;
20802;SDS011;10562;-33.856;151.182;2022-08-21T00:48:36;8.63;;;1.35;;
20802;SDS011;10562;-33.856;151.182;2022-08-21T00:51:07;8.85;;;1.20;;
20802;SDS011;10562;-33.856;151.182;2022-08-21T00:53:40;3.63;;;1.30;;
20802;SDS011;10562;-33.856;151.182;2022-08-21T00:56:12;8.38;;;1.38;;
20802;SDS011;10562;-33.856;151.182;2022-08-21T00:58:46;3.78;;;0.93;;
20802;SDS011;10562;-33.856;151.182;2022-08-21T01:01:17;4.43;;;1.05;;
20802;SDS011;10562;-33.856;151.182;2022-08-21T01:03:48;5.93;;;1.17;;
20802;SDS011;10562;-33.856;151.182;2022-08-21T01:06:20;5.95;;;1.30;;
20802;SDS011;10562;-33.856;151.182;2022-08-21T01:08:51;3.42;;;0.95;;
20802;SDS011;10562;-33.856;151.182;2022-08-21T01:11:21;3.80;;;1.15;;
20802;SDS011;10562;-33.856;151.182;2022-08-21T01:13:56;4.40;;;1.10;;
20802;SDS011;10562;-33.856;151.182;2022-08-21T01:16:28;4.03;;;1.15;;
20802;SDS011;10562;-33.856;151.182;2022-08-21T01:18:59;3.55;;;0.98;;
20802;SDS011;10562;-33.856;151.182;2022-08-21T01:21:32;6.25;;;1.10;;
20802;SDS011;10562;-33.856;151.182;2022-08-21T01:24:03;5.65;;;1.05;;
20802;SDS011;10562;-33.856;151.182;2022-08-21T01:26:34;6.97;;;1.17;;
20802;SDS011;10562;-33.856;151.182;2022-08-21T01:29:08;3.33;;;0.90;;
20802;SDS011;10562;-33.856;151.182;2022-08-21T01:31:43;5.65;;;1.10;;
20802;SDS011;10562;-33.856;151.182;2022-08-21T01:34:14;5.72;;;1.08;;
20802;SDS011;10562;-33.856;151.182;2022-08-21T01:36:48;4.90;;;1.00;;
20802;SDS011;10562;-33.856;151.182;2022-08-21T01:39:19;5.15;;;0.93;;
20802;SDS011;10562;-33.856;151.182;2022-08-21T01:41:49;4.28;;;0.80;;
20802;SDS011;10562;-33.856;151.182;2022-08-21T01:44:21;3.58;;;1.00;;
20802;SDS011;10562;-33.856;151.182;2022-08-21T01:46:52;7.93;;;1.05;;
20802;SDS011;10562;-33.856;151.182;2022-08-21T01:49:23;2.65;;;0.80;;
20802;SDS011;10562;-33.856;151.182;2022-08-21T01:51:56;3.13;;;0.90;;
20802;SDS011;10562;-33.856;151.182;2022-08-21T01:54:27;2.75;;;0.80;;
20802;SDS011;10562;-33.856;151.182;2022-08-21T01:56:58;5.43;;;1.00;;
20802;SDS011;10562;-33.856;151.182;2022-08-21T01:59:30;3.67;;;1.02;;
20802;SDS011;10562;-33.856;151.182;2022-08-21T02:02:03;2.58;;;1.20;;
20802;SDS011;10562;-33.856;151.182;2022-08-21T02:04:34;8.20;;;1.10;;
20802;SDS011;10562;-33.856;151.182;2022-08-21T02:07:07;2.35;;;0.80;;
20802;SDS011;10562;-33.856;151.182;2022-08-21T02:09:38;2.65;;;0.98;;
20802;SDS011;10562;-33.856;151.182;2022-08-21T02:12:09;7.18;;;2.65;;
20802;SDS011;10562;-33.856;151.182;2022-08-21T02:14:40;4.55;;;1.10;;
20802;SDS011;10562;-33.856;151.182;2022-08-21T02:17:11;5.05;;;1.13;;
20802;SDS011;10562;-33.856;151.182;2022-08-21T02:19:42;4.07;;;1.50;;
20802;SDS011;10562;-33.856;151.182;2022-08-21T02:22:15;8.73;;;2.38;;
20802;SDS011;10562;-33.856;151.182;2022-08-21T02:24:46;4.03;;;1.40;;
20802;SDS011;10562;-33.856;151.182;2022-08-21T02:27:17;9.18;;;2.97;;
20802;SDS011;10562;-33.856;151.182;2022-08-21T02:29:48;5.05;;;1.45;;
20802;SDS011;10562;-33.856;151.182;2022-08-21T02:32:19;5.18;;;0.88;;
20802;SDS011;10562;-33.856;151.182;2022-08-21T02:34:50;2.92;;;1.00;;
20802;SDS011;10562;-33.856;151.182;2022-08-21T02:37:22;3.70;;;0.90;;
20802;SDS011;10562;-33.856;151.182;2022-08-21T02:39:53;2.13;;;0.80;;
20802;SDS011;10562;-33.856;151.182;2022-08-21T02:42:24;2.75;;;0.90;;
20802;SDS011;10562;-33.856;151.182;2022-08-21T02:44:56;2.63;;;0.80;;
20802;SDS011;10562;-33.856;151.182;2022-08-21T02:47:27;4.15;;;0.93;;
20802;SDS011;10562;-33.856;151.182;2022-08-21T02:49:58;3.38;;;1.00;;
20802;SDS011;10562;-33.856;151.182;2022-08-21T02:52:31;3.03;;;0.90;;
20802;SDS011;10562;-33.856;151.182;2022-08-21T02:55:02;2.55;;;0.73;;
20802;SDS011;10562;-33.856;151.182;2022-08-21T02:57:34;5.03;;;0.93;;
20802;SDS011;10562;-33.856;151.182;2022-08-21T03:00:05;4.93;;;1.05;;
20802;SDS011;10562;-33.856;151.182;2022-08-21T03:02:38;3.22;;;0.90;;
20802;SDS011;10562;-33.856;151.182;2022-08-21T03:05:09;3.17;;;1.00;;
20802;SDS011;10562;-33.856;151.182;2022-08-21T03:07:43;4.05;;;1.10;;
20802;SDS011;10562;-33.856;151.182;2022-08-21T03:10:15;3.03;;;1.00;;
20802;SDS011;10562;-33.856;151.182;2022-08-21T03:12:46;3.72;;;1.00;;
20802;SDS011;10562;-33.856;151.182;2022-08-21T03:15:18;2.85;;;0.80;;
20802;SDS011;10562;-33.856;151.182;2022-08-21T03:17:50;3.45;;;0.85;;
20802;SDS011;10562;-33.856;151.182;2022-08-21T03:20:24;3.45;;;0.90;;
20802;SDS011;10562;-33.856;151.182;2022-08-21T03:23:00;2.08;;;0.90;;
20802;SDS011;10562;-33.856;151.182;2022-08-21T03:25:32;4.53;;;0.90;;
20802;SDS011;10562;-33.856;151.182;2022-08-21T03:28:04;2.63;;;0.90;;
20802;SDS011;10562;-33.856;151.182;2022-08-21T03:30:36;3.30;;;0.90;;
20802;SDS011;10562;-33.856;151.182;2022-08-21T03:33:07;2.47;;;1.00;;
20802;SDS011;10562;-33.856;151.182;2022-08-21T03:35:38;2.85;;;0.70;;
20802;SDS011;10562;-33.856;151.182;2022-08-21T03:38:12;4.85;;;0.90;;
20802;SDS011;10562;-33.856;151.182;2022-08-21T03:40:43;2.25;;;0.60;;
20802;SDS011;10562;-33.856;151.182;2022-08-21T03:43:14;2.20;;;0.98;;
20802;SDS011;10562;-33.856;151.182;2022-08-21T03:45:45;4.82;;;0.93;;
20802;SDS011;10562;-33.856;151.182;2022-08-21T03:48:16;2.90;;;0.80;;
20802;SDS011;10562;-33.856;151.182;2022-08-21T03:50:47;3.00;;;0.82;;
20802;SDS011;10562;-33.856;151.182;2022-08-21T03:53:22;2.22;;;0.80;;
20802;SDS011;10562;-33.856;151.182;2022-08-21T03:55:53;1.92;;;0.63;;
20802;SDS011;10562;-33.856;151.182;2022-08-21T03:58:25;4.32;;;0.70;;
20802;SDS011;10562;-33.856;151.182;2022-08-21T04:00:57;1.15;;;0.63;;
20802;SDS011;10562;-33.856;151.182;2022-08-21T04:03:29;2.22;;;0.80;;
20802;SDS011;10562;-33.856;151.182;2022-08-21T04:06:00;2.33;;;1.00;;
20802;SDS011;10562;-33.856;151.182;2022-08-21T04:08:33;2.03;;;0.70;;
20802;SDS011;10562;-33.856;151.182;2022-08-21T04:11:04;2.80;;;0.60;;
20802;SDS011;10562;-33.856;151.182;2022-08-21T04:13:36;5.00;;;0.75;;
20802;SDS011;10562;-33.856;151.182;2022-08-21T04:16:08;1.60;;;0.70;;
20802;SDS011;10562;-33.856;151.182;2022-08-21T04:18:40;1.38;;;0.68;;
20802;SDS011;10562;-33.856;151.182;2022-08-21T04:21:11;1.55;;;0.68;;
20802;SDS011;10562;-33.856;151.182;2022-08-21T04:23:44;2.97;;;0.70;;
20802;SDS011;10562;-33.856;151.182;2022-08-21T04:26:15;2.42;;;0.82;;
20802;SDS011;10562;-33.856;151.182;2022-08-21T04:28:46;1.50;;;0.70;;
20802;SDS011;10562;-33.856;151.182;2022-08-21T04:31:17;1.10;;;0.50;;
20802;SDS011;10562;-33.856;151.182;2022-08-21T04:33:48;2.33;;;0.77;;
20802;SDS011;10562;-33.856;151.182;2022-08-21T04:36:19;1.23;;;0.57;;
20802;SDS011;10562;-33.856;151.182;2022-08-21T04:38:52;3.95;;;0.93;;
20802;SDS011;10562;-33.856;151.182;2022-08-21T04:41:23;5.22;;;1.17;;
20802;SDS011;10562;-33.856;151.182;2022-08-21T04:43:54;3.90;;;1.08;;
20802;SDS011;10562;-33.856;151.182;2022-08-21T04:46:25;7.55;;;1.27;;
20802;SDS011;10562;-33.856;151.182;2022-08-21T04:48:56;6.57;;;1.08;;
20802;SDS011;10562;-33.856;151.182;2022-08-21T04:51:28;10.88;;;1.38;;
20802;SDS011;10562;-33.856;151.182;2022-08-21T04:54:06;9.40;;;1.10;;
20802;SDS011;10562;-33.856;151.182;2022-08-21T04:56:41;4.05;;;0.93;;
20802;SDS011;10562;-33.856;151.182;2022-08-21T04:59:15;5.43;;;1.23;;
20802;SDS011;10562;-33.856;151.182;2022-08-21T05:01:49;4.85;;;1.23;;
20802;SDS011;10562;-33.856;151.182;2022-08-21T05:04:23;6.72;;;1.27;;
20802;SDS011;10562;-33.856;151.182;2022-08-21T05:06:59;7.80;;;1.15;;
20802;SDS011;10562;-33.856;151.182;2022-08-21T05:09:34;6.10;;;1.20;;
20802;SDS011;10562;-33.856;151.182;2022-08-21T05:12:06;8.50;;;1.20;;
20802;SDS011;10562;-33.856;151.182;2022-08-21T05:14:38;5.13;;;1.30;;
20802;SDS011;10562;-33.856;151.182;2022-08-21T05:17:10;8.07;;;1.30;;
20802;SDS011;10562;-33.856;151.182;2022-08-21T05:19:41;6.10;;;1.40;;
20802;SDS011;10562;-33.856;151.182;2022-08-21T05:22:18;7.40;;;1.30;;
20802;SDS011;10562;-33.856;151.182;2022-08-21T05:24:52;7.45;;;1.23;;
20802;SDS011;10562;-33.856;151.182;2022-08-21T05:27:23;7.72;;;1.20;;
20802;SDS011;10562;-33.856;151.182;2022-08-21T05:29:55;6.55;;;1.20;;
20802;SDS011;10562;-33.856;151.182;2022-08-21T05:32:27;5.72;;;1.40;;
20802;SDS011;10562;-33.856;151.182;2022-08-21T05:34:58;4.38;;;1.02;;
20802;SDS011;10562;-33.856;151.182;2022-08-21T05:37:28;4.13;;;1.20;;
20802;SDS011;10562;-33.856;151.182;2022-08-21T05:40:02;5.78;;;1.00;;
20802;SDS011;10562;-33.856;151.182;2022-08-21T05:42:34;4.85;;;1.10;;
20802;SDS011;10562;-33.856;151.182;2022-08-21T05:45:05;4.53;;;1.02;;
20802;SDS011;10562;-33.856;151.182;2022-08-21T05:47:36;8.15;;;1.15;;
20802;SDS011;10562;-33.856;151.182;2022-08-21T05:50:07;4.90;;;1.20;;
20802;SDS011;10562;-33.856;151.182;2022-08-21T05:52:38;4.47;;;1.20;;
20802;SDS011;10562;-33.856;151.182;2022-08-21T05:55:11;7.10;;;1.30;;
20802;SDS011;10562;-33.856;151.182;2022-08-21T05:57:42;3.22;;;0.88;;
20802;SDS011;10562;-33.856;151.182;2022-08-21T06:00:13;8.32;;;1.55;;
20802;SDS011;10562;-33.856;151.182;2022-08-21T06:02:45;4.90;;;1.00;;
20802;SDS011;10562;-33.856;151.182;2022-08-21T06:05:16;5.93;;;1.10;;
20802;SDS011;10562;-33.856;151.182;2022-08-21T06:07:47;2.50;;;1.10;;
20802;SDS011;10562;-33.856;151.182;2022-08-21T06:10:20;6.05;;;1.05;;
20802;SDS011;10562;-33.856;151.182;2022-08-21T06:12:53;6.97;;;1.20;;
20802;SDS011;10562;-33.856;151.182;2022-08-21T06:15:23;10.13;;;1.42;;
20802;SDS011;10562;-33.856;151.182;2022-08-21T06:17:54;6.32;;;1.20;;
20802;SDS011;10562;-33.856;151.182;2022-08-21T06:20:25;5.13;;;1.00;;
20802;SDS011;10562;-33.856;151.182;2022-08-21T06:22:57;6.97;;;1.40;;
20802;SDS011;10562;-33.856;151.182;2022-08-21T06:25:29;5.13;;;1.02;;
20802;SDS011;10562;-33.856;151.182;2022-08-21T06:28:01;3.35;;;1.13;;
20802;SDS011;10562;-33.856;151.182;2022-08-21T06:30:33;5.15;;;1.08;;
20802;SDS011;10562;-33.856;151.182;2022-08-21T06:33:05;4.53;;;1.00;;
20802;SDS011;10562;-33.856;151.182;2022-08-21T06:35:36;4.78;;;1.10;;
20802;SDS011;10562;-33.856;151.182;2022-08-21T06:38:07;4.75;;;1.17;;
20802;SDS011;10562;-33.856;151.182;2022-08-21T06:40:40;4.97;;;1.20;;
20802;SDS011;10562;-33.856;151.182;2022-08-21T06:43:12;5.55;;;1.30;;
20802;SDS011;10562;-33.856;151.182;2022-08-21T06:45:45;5.68;;;1.20;;
20802;SDS011;10562;-33.856;151.182;2022-08-21T06:48:15;4.03;;;1.20;;
20802;SDS011;10562;-33.856;151.182;2022-08-21T06:50:46;6.00;;;1.90;;
20802;SDS011;10562;-33.856;151.182;2022-08-21T06:53:18;5.05;;;1.40;;
20802;SDS011;10562;-33.856;151.182;2022-08-21T06:55:52;5.28;;;1.35;;
20802;SDS011;10562;-33.856;151.182;2022-08-21T06:58:25;3.35;;;1.20;;
20802;SDS011;10562;-33.856;151.182;2022-08-21T07:00:57;5.95;;;1.30;;
20802;SDS011;10562;-33.856;151.182;2022-08-21T07:03:28;3.63;;;1.10;;
20802;SDS011;10562;-33.856;151.182;2022-08-21T07:06:00;3.97;;;1.10;;
20802;SDS011;10562;-33.856;151.182;2022-08-21T07:08:31;7.03;;;1.23;;
20802;SDS011;10562;-33.856;151.182;2022-08-21T07:11:06;5.20;;;1.20;;
20802;SDS011;10562;-33.856;151.182;2022-08-21T07:13:38;5.07;;;1.00;;
20802;SDS011;10562;-33.856;151.182;2022-08-21T07:16:09;4.55;;;1.38;;
20802;SDS011;10562;-33.856;151.182;2022-08-21T07:18:40;10.10;;;1.58;;
20802;SDS011;10562;-33.856;151.182;2022-08-21T07:21:11;5.53;;;1.20;;
20802;SDS011;10562;-33.856;151.182;2022-08-21T07:23:42;5.28;;;1.23;;
20802;SDS011;10562;-33.856;151.182;2022-08-21T07:26:17;5.35;;;1.33;;
20802;SDS011;10562;-33.856;151.182;2022-08-21T07:28:49;4.68;;;1.10;;
20802;SDS011;10562;-33.856;151.182;2022-08-21T07:31:21;3.10;;;1.00;;
20802;SDS011;10562;-33.856;151.182;2022-08-21T07:33:53;2.88;;;1.08;;
20802;SDS011;10562;-33.856;151.182;2022-08-21T07:36:25;5.70;;;1.10;;
20802;SDS011;10562;-33.856;151.182;2022-08-21T07:38:56;3.10;;;1.10;;
20802;SDS011;10562;-33.856;151.182;2022-08-21T07:41:30;4.03;;;1.10;;
20802;SDS011;10562;-33.856;151.182;2022-08-21T07:44:02;4.45;;;1.23;;
20802;SDS011;10562;-33.856;151.182;2022-08-21T07:46:33;6.85;;;1.30;;
20802;SDS011;10562;-33.856;151.182;2022-08-21T07:49:04;4.43;;;1.33;;
20802;SDS011;10562;-33.856;151.182;2022-08-21T07:51:35;4.65;;;1.27;;
20802;SDS011;10562;-33.856;151.182;2022-08-21T07:54:06;3.78;;;1.25;;
20802;SDS011;10562;-33.856;151.182;2022-08-21T07:56:38;5.53;;;1.20;;
20802;SDS011;10562;-33.856;151.182;2022-08-21T07:59:09;9.35;;;1.10;;
20802;SDS011;10562;-33.856;151.182;2022-08-21T08:01:40;5.28;;;1.38;;
20802;SDS011;10562;-33.856;151.182;2022-08-21T08:04:11;5.93;;;1.65;;
20802;SDS011;10562;-33.856;151.182;2022-08-21T08:06:43;6.55;;;1.80;;
20802;SDS011;10562;-33.856;151.182;2022-08-21T08:09:14;5.55;;;1.38;;
20802;SDS011;10562;-33.856;151.182;2022-08-21T08:11:47;8.20;;;1.70;;
20802;SDS011;10562;-33.856;151.182;2022-08-21T08:14:18;5.05;;;1.80;;
20802;SDS011;10562;-33.856;151.182;2022-08-21T08:16:49;8.02;;;1.58;;
20802;SDS011;10562;-33.856;151.182;2022-08-21T08:19:20;6.40;;;1.70;;
20802;SDS011;10562;-33.856;151.182;2022-08-21T08:21:50;4.90;;;1.40;;
20802;SDS011;10562;-33.856;151.182;2022-08-21T08:24:22;3.90;;;1.42;;
20802;SDS011;10562;-33.856;151.182;2022-08-21T08:26:55;8.10;;;1.70;;
20802;SDS011;10562;-33.856;151.182;2022-08-21T08:29:26;10.75;;;1.70;;
20802;SDS011;10562;-33.856;151.182;2022-08-21T08:31:57;8.50;;;1.70;;
20802;SDS011;10562;-33.856;151.182;2022-08-21T08:34:28;4.70;;;1.70;;
20802;SDS011;10562;-33.856;151.182;2022-08-21T08:36:59;6.97;;;1.92;;
20802;SDS011;10562;-33.856;151.182;2022-08-21T08:39:30;6.50;;;1.70;;
20802;SDS011;10562;-33.856;151.182;2022-08-21T08:42:05;5.78;;;1.67;;
20802;SDS011;10562;-33.856;151.182;2022-08-21T08:44:40;4.45;;;1.60;;
20802;SDS011;10562;-33.856;151.182;2022-08-21T08:47:11;6.65;;;2.20;;
20802;SDS011;10562;-33.856;151.182;2022-08-21T08:49:47;5.65;;;1.80;;
20802;SDS011;10562;-33.856;151.182;2022-08-21T08:52:26;6.07;;;1.90;;
20802;SDS011;10562;-33.856;151.182;2022-08-21T08:55:00;7.03;;;1.98;;
20802;SDS011;10562;-33.856;151.182;2022-08-21T08:57:36;5.97;;;1.70;;
20802;SDS011;10562;-33.856;151.182;2022-08-21T09:00:09;7.80;;;2.00;;
20802;SDS011;10562;-33.856;151.182;2022-08-21T09:02:42;7.38;;;2.47;;
20802;SDS011;10562;-33.856;151.182;2022-08-21T09:05:18;6.40;;;2.08;;
20802;SDS011;10562;-33.856;151.182;2022-08-21T09:07:57;4.07;;;1.40;;
20802;SDS011;10562;-33.856;151.182;2022-08-21T09:11:00;7.90;;;2.10;;
20802;SDS011;10562;-33.856;151.182;2022-08-21T09:13:37;6.72;;;2.03;;
20802;SDS011;10562;-33.856;151.182;2022-08-21T09:16:19;6.88;;;1.90;;
20802;SDS011;10562;-33.856;151.182;2022-08-21T09:19:02;7.32;;;2.03;;
20802;SDS011;10562;-33.856;151.182;2022-08-21T09:21:39;4.50;;;1.60;;
20802;SDS011;10562;-33.856;151.182;2022-08-21T09:24:21;6.82;;;1.70;;
20802;SDS011;10562;-33.856;151.182;2022-08-21T09:27:02;7.43;;;2.60;;
20802;SDS011;10562;-33.856;151.182;2022-08-21T09:29:39;10.80;;;2.88;;
20802;SDS011;10562;-33.856;151.182;2022-08-21T09:32:15;8.50;;;2.90;;
20802;SDS011;10562;-33.856;151.182;2022-08-21T09:34:57;8.05;;;2.45;;
20802;SDS011;10562;-33.856;151.182;2022-08-21T09:37:30;6.93;;;2.90;;
20802;SDS011;10562;-33.856;151.182;2022-08-21T09:40:14;5.82;;;2.97;;
20802;SDS011;10562;-33.856;151.182;2022-08-21T09:42:53;9.18;;;3.50;;
20802;SDS011;10562;-33.856;151.182;2022-08-21T09:45:27;12.95;;;2.60;;
20802;SDS011;10562;-33.856;151.182;2022-08-21T09:48:08;6.85;;;2.13;;
20802;SDS011;10562;-33.856;151.182;2022-08-21T09:50:40;7.28;;;2.00;;
20802;SDS011;10562;-33.856;151.182;2022-08-21T09:53:16;7.60;;;2.00;;
20802;SDS011;10562;-33.856;151.182;2022-08-21T09:55:49;6.50;;;1.77;;
20802;SDS011;10562;-33.856;151.182;2022-08-21T09:58:38;7.60;;;1.60;;
20802;SDS011;10562;-33.856;151.182;2022-08-21T10:01:15;7.25;;;1.60;;
20802;SDS011;10562;-33.856;151.182;2022-08-21T10:03:47;7.63;;;1.65;;
20802;SDS011;10562;-33.856;151.182;2022-08-21T10:06:30;8.15;;;2.00;;
20802;SDS011;10562;-33.856;151.182;2022-08-21T10:09:05;7.55;;;1.88;;
20802;SDS011;10562;-33.856;151.182;2022-08-21T10:11:38;4.35;;;1.45;;
20802;SDS011;10562;-33.856;151.182;2022-08-21T10:14:15;6.80;;;1.58;;
20802;SDS011;10562;-33.856;151.182;2022-08-21T10:17:04;3.03;;;1.50;;
20802;SDS011;10562;-33.856;151.182;2022-08-21T10:19:42;7.88;;;1.67;;
20802;SDS011;10562;-33.856;151.182;2022-08-21T10:22:22;7.30;;;1.70;;
20802;SDS011;10562;-33.856;151.182;2022-08-21T10:25:05;8.63;;;1.60;;
20802;SDS011;10562;-33.856;151.182;2022-08-21T10:27:43;7.20;;;1.65;;
20802;SDS011;10562;-33.856;151.182;2022-08-21T10:30:21;8.95;;;1.92;;
20802;SDS011;10562;-33.856;151.182;2022-08-21T10:33:04;3.50;;;1.50;;
20802;SDS011;10562;-33.856;151.182;2022-08-21T10:35:47;6.28;;;1.70;;
20802;SDS011;10562;-33.856;151.182;2022-08-21T10:41:20;8.15;;;1.85;;
20802;SDS011;10562;-33.856;151.182;2022-08-21T10:43:59;7.47;;;1.80;;
20802;SDS011;10562;-33.856;151.182;2022-08-21T10:46:41;8.10;;;1.92;;
20802;SDS011;10562;-33.856;151.182;2022-08-21T10:49:20;6.13;;;1.83;;
20802;SDS011;10562;-33.856;151.182;2022-08-21T10:52:02;7.10;;;1.85;;
20802;SDS011;10562;-33.856;151.182;2022-08-21T10:54:50;5.03;;;1.63;;
20802;SDS011;10562;-33.856;151.182;2022-08-21T10:57:27;6.40;;;1.77;;
20802;SDS011;10562;-33.856;151.182;2022-08-21T11:00:04;7.18;;;1.83;;
20802;SDS011;10562;-33.856;151.182;2022-08-21T11:02:38;7.97;;;1.58;;
20802;SDS011;10562;-33.856;151.182;2022-08-21T11:05:15;5.18;;;1.60;;
20802;SDS011;10562;-33.856;151.182;2022-08-21T11:07:51;7.30;;;1.73;;
20802;SDS011;10562;-33.856;151.182;2022-08-21T11:10:26;5.78;;;1.58;;
20802;SDS011;10562;-33.856;151.182;2022-08-21T11:13:00;6.35;;;1.30;;
20802;SDS011;10562;-33.856;151.182;2022-08-21T11:15:36;5.45;;;1.45;;
20802;SDS011;10562;-33.856;151.182;2022-08-21T11:18:17;7.13;;;1.33;;
20802;SDS011;10562;-33.856;151.182;2022-08-21T11:20:58;4.07;;;1.30;;
20802;SDS011;10562;-33.856;151.182;2022-08-21T11:23:38;7.47;;;1.50;;
20802;SDS011;10562;-33.856;151.182;2022-08-21T11:26:15;3.58;;;1.30;;
20802;SDS011;10562;-33.856;151.182;2022-08-21T11:28:55;7.97;;;1.50;;
20802;SDS011;10562;-33.856;151.182;2022-08-21T11:31:37;5.53;;;1.35;;
20802;SDS011;10562;-33.856;151.182;2022-08-21T11:34:20;6.50;;;1.30;;
20802;SDS011;10562;-33.856;151.182;2022-08-21T11:37:00;5.03;;;1.17;;
20802;SDS011;10562;-33.856;151.182;2022-08-21T11:39:37;5.80;;;1.30;;
20802;SDS011;10562;-33.856;151.182;2022-08-21T11:42:17;9.60;;;1.55;;
20802;SDS011;10562;-33.856;151.182;2022-08-21T11:44:56;4.30;;;1.30;;
20802;SDS011;10562;-33.856;151.182;2022-08-21T11:47:44;8.70;;;1.50;;
20802;SDS011;10562;-33.856;151.182;2022-08-21T11:50:22;5.57;;;1.50;;
20802;SDS011;10562;-33.856;151.182;2022-08-21T11:52:59;4.03;;;1.30;;
20802;SDS011;10562;-33.856;151.182;2022-08-21T11:55:35;7.07;;;1.50;;
20802;SDS011;10562;-33.856;151.182;2022-08-21T11:58:10;5.18;;;1.27;;
20802;SDS011;10562;-33.856;151.182;2022-08-21T12:00:49;4.35;;;1.10;;
20802;SDS011;10562;-33.856;151.182;2022-08-21T12:03:25;3.70;;;1.15;;
20802;SDS011;10562;-33.856;151.182;2022-08-21T12:05:59;6.38;;;1.38;;
20802;SDS011;10562;-33.856;151.182;2022-08-21T12:08:35;6.47;;;1.25;;
20802;SDS011;10562;-33.856;151.182;2022-08-21T12:11:07;7.93;;;1.40;;
20802;SDS011;10562;-33.856;151.182;2022-08-21T12:13:40;5.18;;;1.60;;
20802;SDS011;10562;-33.856;151.182;2022-08-21T12:16:28;4.82;;;1.30;;
20802;SDS011;10562;-33.856;151.182;2022-08-21T12:19:05;5.15;;;1.25;;
20802;SDS011;10562;-33.856;151.182;2022-08-21T12:21:48;6.82;;;1.30;;
20802;SDS011;10562;-33.856;151.182;2022-08-21T12:24:32;7.25;;;1.40;;
20802;SDS011;10562;-33.856;151.182;2022-08-21T12:27:18;6.85;;;1.10;;
20802;SDS011;10562;-33.856;151.182;2022-08-21T12:29:53;7.88;;;1.38;;
20802;SDS011;10562;-33.856;151.182;2022-08-21T12:32:28;4.47;;;1.25;;
20802;SDS011;10562;-33.856;151.182;2022-08-21T12:35:12;5.38;;;1.45;;
20802;SDS011;10562;-33.856;151.182;2022-08-21T12:37:47;8.27;;;1.40;;
20802;SDS011;10562;-33.856;151.182;2022-08-21T12:40:24;6.80;;;1.10;;
20802;SDS011;10562;-33.856;151.182;2022-08-21T12:42:59;7.80;;;1.10;;
20802;SDS011;10562;-33.856;151.182;2022-08-21T12:45:34;6.57;;;1.27;;
20802;SDS011;10562;-33.856;151.182;2022-08-21T12:48:13;6.88;;;1.55;;
20802;SDS011;10562;-33.856;151.182;2022-08-21T12:50:49;5.97;;;1.60;;
20802;SDS011;10562;-33.856;151.182;2022-08-21T12:53:26;7.47;;;1.95;;
20802;SDS011;10562;-33.856;151.182;2022-08-21T12:56:03;5.35;;;1.77;;
20802;SDS011;10562;-33.856;151.182;2022-08-21T12:58:40;7.68;;;1.70;;
20802;SDS011;10562;-33.856;151.182;2022-08-21T13:01:15;7.35;;;1.60;;
20802;SDS011;10562;-33.856;151.182;2022-08-21T13:03:51;5.43;;;1.60;;
20802;SDS011;10562;-33.856;151.182;2022-08-21T13:06:24;5.22;;;1.70;;
20802;SDS011;10562;-33.856;151.182;2022-08-21T13:08:58;8.75;;;1.80;;
20802;SDS011;10562;-33.856;151.182;2022-08-21T13:11:37;4.35;;;1.42;;
20802;SDS011;10562;-33.856;151.182;2022-08-21T13:14:10;6.55;;;1.83;;
20802;SDS011;10562;-33.856;151.182;2022-08-21T13:16:54;7.70;;;1.60;;
20802;SDS011;10562;-33.856;151.182;2022-08-21T13:19:26;4.47;;;1.48;;
20802;SDS011;10562;-33.856;151.182;2022-08-21T13:21:57;6.90;;;1.58;;
20802;SDS011;10562;-33.856;151.182;2022-08-21T13:24:31;8.90;;;1.80;;
20802;SDS011;10562;-33.856;151.182;2022-08-21T13:27:14;7.72;;;2.40;;
20802;SDS011;10562;-33.856;151.182;2022-08-21T13:30:00;6.75;;;1.83;;
20802;SDS011;10562;-33.856;151.182;2022-08-21T13:32:37;9.27;;;1.70;;
20802;SDS011;10562;-33.856;151.182;2022-08-21T13:35:12;5.57;;;1.40;;
20802;SDS011;10562;-33.856;151.182;2022-08-21T13:37:46;5.53;;;1.42;;
20802;SDS011;10562;-33.856;151.182;2022-08-21T13:40:19;5.97;;;1.40;;
20802;SDS011;10562;-33.856;151.182;2022-08-21T13:42:54;6.93;;;1.50;;
20802;SDS011;10562;-33.856;151.182;2022-08-21T13:45:27;3.75;;;1.30;;
20802;SDS011;10562;-33.856;151.182;2022-08-21T13:48:01;6.28;;;1.63;;
20802;SDS011;10562;-33.856;151.182;2022-08-21T13:50:33;10.13;;;1.67;;
20802;SDS011;10562;-33.856;151.182;2022-08-21T13:53:19;5.07;;;1.50;;
20802;SDS011;10562;-33.856;151.182;2022-08-21T13:55:52;4.45;;;1.48;;
20802;SDS011;10562;-33.856;151.182;2022-08-21T13:58:28;7.75;;;1.70;;
20802;SDS011;10562;-33.856;151.182;2022-08-21T14:01:00;5.15;;;1.52;;
20802;SDS011;10562;-33.856;151.182;2022-08-21T14:03:33;4.88;;;1.50;;
20802;SDS011;10562;-33.856;151.182;2022-08-21T14:06:11;5.30;;;1.60;;
20802;SDS011;10562;-33.856;151.182;2022-08-21T14:08:48;6.22;;;1.63;;
20802;SDS011;10562;-33.856;151.182;2022-08-21T14:11:22;4.95;;;1.83;;
20802;SDS011;10562;-33.856;151.182;2022-08-21T14:13:59;4.15;;;1.50;;
20802;SDS011;10562;-33.856;151.182;2022-08-21T14:16:43;5.70;;;1.60;;
20802;SDS011;10562;-33.856;151.182;2022-08-21T14:19:22;4.32;;;1.55;;
20802;SDS011;10562;-33.856;151.182;2022-08-21T14:21:55;5.25;;;1.65;;
20802;SDS011;10562;-33.856;151.182;2022-08-21T14:24:27;6.70;;;1.63;;
20802;SDS011;10562;-33.856;151.182;2022-08-21T14:27:01;4.65;;;1.77;;
20802;SDS011;10562;-33.856;151.182;2022-08-21T14:29:37;6.38;;;1.73;;
20802;SDS011;10562;-33.856;151.182;2022-08-21T14:32:10;10.52;;;1.80;;
20802;SDS011;10562;-33.856;151.182;2022-08-21T14:34:43;4.90;;;1.50;;
20802;SDS011;10562;-33.856;151.182;2022-08-21T14:37:14;3.63;;;1.40;;
20802;SDS011;10562;-33.856;151.182;2022-08-21T14:39:45;6.60;;;1.40;;
20802;SDS011;10562;-33.856;151.182;2022-08-21T14:42:16;6.57;;;1.67;;
20802;SDS011;10562;-33.856;151.182;2022-08-21T14:44:50;6.35;;;1.50;;
20802;SDS011;10562;-33.856;151.182;2022-08-21T14:47:29;3.25;;;1.40;;
20802;SDS011;10562;-33.856;151.182;2022-08-21T14:50:00;4.78;;;1.45;;